Time;durP1;ratioP1;P1;durP2;ratioP2;P2;SDS_P1;SDS_P2;PMS_P1;PMS_P2;Temp;Humidity;BMP_temperature;BMP_pressure;BME280_temperature;BME280_humidity;BME280_pressure;Samples;Min_cycle;Max_cycle;Signal;HPM_P1;HPM_P2
2022/05/06 00:02:14;;;;;;;;;17.50;14.50;;;;;17.01;50.11;102128.94;5059008;28;46277;-69
2022/05/06 00:04:43;;;;;;;;;22.50;19.25;;;;;16.99;50.17;102122.75;5066067;27;45586;-69
2022/05/06 00:07:11;;;;;;;;;19.75;18.25;;;;;16.99;50.42;102128.13;5065340;28;45572;-69
2022/05/06 00:09:36;;;;;;;;;18.25;18.00;;;;;17.02;50.30;102128.03;5070533;28;45599;-69
2022/05/06 00:12:02;;;;;;;;;18.00;16.25;;;;;17.00;50.54;102119.09;5071654;28;45248;-69
2022/05/06 00:14:27;;;;;;;;;16.75;16.50;;;;;17.02;50.27;102129.81;5062051;28;45272;-69
2022/05/06 00:16:53;;;;;;;;;18.50;17.75;;;;;16.99;50.49;102133.53;5062465;28;45252;-69
2022/05/06 00:19:18;;;;;;;;;17.00;17.00;;;;;16.95;50.43;102131.88;5063139;28;45323;-69
2022/05/06 00:21:43;;;;;;;;;17.75;17.50;;;;;16.88;50.33;102113.28;5061917;28;45417;-69
2022/05/06 00:24:09;;;;;;;;;20.25;18.25;;;;;16.94;50.57;102130.13;5075159;28;45443;-69
2022/05/06 00:26:34;;;;;;;;;19.75;19.75;;;;;16.93;50.76;102128.34;5061775;28;45339;-69
2022/05/06 00:28:59;;;;;;;;;16.50;15.50;;;;;16.94;50.80;102130.13;5073271;28;46541;-69
2022/05/06 00:31:25;;;;;;;;;22.00;20.25;;;;;16.92;50.59;102125.72;5082155;28;45982;-69
2022/05/06 00:33:50;;;;;;;;;18.00;16.25;;;;;16.85;50.83;102114.28;5065620;28;45251;-69
2022/05/06 00:36:15;;;;;;;;;26.00;20.00;;;;;16.91;51.05;102124.84;5061643;28;45450;-69
2022/05/06 00:38:44;;;;;;;;;22.00;20.50;;;;;16.88;50.99;102124.06;5063774;28;45448;-69
2022/05/06 00:41:09;;;;;;;;;20.75;19.50;;;;;16.85;50.81;102115.13;5079541;28;46103;-69
2022/05/06 00:43:39;;;;;;;;;23.00;21.25;;;;;16.90;51.06;102131.16;5067929;28;45332;-69
2022/05/06 00:46:11;;;;;;;;;18.75;16.75;;;;;16.90;51.15;102136.56;5071518;28;45390;-69
2022/05/06 00:48:37;;;;;;;;;20.25;19.75;;;;;16.85;51.18;102128.63;5068269;28;45327;-69
2022/05/06 00:51:06;;;;;;;;;22.50;21.75;;;;;16.76;51.24;102117.28;5061452;28;46037;-69
2022/05/06 00:53:32;;;;;;;;;23.25;19.00;;;;;16.78;51.31;102128.88;5061379;28;45587;-69
2022/05/06 00:55:58;;;;;;;;;18.50;16.25;;;;;16.81;51.44;102131.47;5066700;28;45425;-69
2022/05/06 00:58:25;;;;;;;;;22.75;19.25;;;;;16.78;51.17;102132.47;5070669;28;45650;-69
2022/05/06 01:00:50;;;;;;;;;20.50;18.50;;;;;16.78;51.16;102123.50;5069523;28;46033;-69
2022/05/06 01:03:15;;;;;;;;;21.00;20.75;;;;;16.77;51.09;102119.03;5063412;27;45319;-69
2022/05/06 01:05:41;;;;;;;;;19.25;19.25;;;;;16.77;51.46;102122.63;5071110;28;45332;-69
2022/05/06 01:08:08;;;;;;;;;18.00;17.50;;;;;16.76;51.52;102125.38;5068177;28;45208;-69
2022/05/06 01:10:35;;;;;;;;;20.75;20.75;;;;;16.74;51.53;102114.66;5070702;28;45576;-69
2022/05/06 01:13:00;;;;;;;;;18.00;16.50;;;;;16.75;51.09;102123.59;5064435;28;45516;-69
2022/05/06 01:15:30;;;;;;;;;19.50;19.50;;;;;16.75;51.32;102112.81;5071232;28;45311;-69
2022/05/06 01:17:57;;;;;;;;;19.25;18.00;;;;;16.74;51.67;102125.44;5060673;28;45371;-69
2022/05/06 01:20:24;;;;;;;;;20.00;18.00;;;;;16.71;51.65;102116.56;5061118;28;46293;-69
2022/05/06 01:22:56;;;;;;;;;20.25;16.50;;;;;16.70;51.65;102110.28;5065105;28;45489;-69
2022/05/06 01:25:21;;;;;;;;;20.50;19.75;;;;;16.72;51.63;102116.50;5069451;28;45301;-69
2022/05/06 01:28:01;;;;;;;;;20.75;20.00;;;;;16.71;51.83;102109.34;5072560;28;45440;-69
2022/05/06 01:30:42;;;;;;;;;18.75;17.00;;;;;16.70;51.60;102112.09;5076549;28;46125;-69
2022/05/06 01:33:10;;;;;;;;;21.75;21.00;;;;;16.67;51.78;102114.00;5072151;28;45212;-69
2022/05/06 01:35:41;;;;;;;;;23.00;23.00;;;;;16.64;51.88;102119.47;5066998;27;45503;-69
2022/05/06 01:38:06;;;;;;;;;23.25;21.75;;;;;16.60;52.06;102130.41;5075942;28;45299;-69
2022/05/06 01:40:44;;;;;;;;;26.75;26.00;;;;;16.54;52.02;102120.75;5070169;28;46305;-69
2022/05/06 01:43:13;;;;;;;;;22.50;21.00;;;;;16.48;52.06;102120.97;5068752;28;45319;-69
2022/05/06 01:45:40;;;;;;;;;22.75;21.50;;;;;16.47;52.25;102113.78;5071438;28;45234;-69
2022/05/06 01:48:07;;;;;;;;;22.75;21.75;;;;;16.48;52.36;102112.88;5073165;28;45491;-69
2022/05/06 01:50:36;;;;;;;;;23.25;20.75;;;;;16.50;52.48;102113.69;5060350;28;46462;-69
2022/05/06 01:53:02;;;;;;;;;24.50;22.00;;;;;16.51;52.40;102114.59;5061499;28;45315;-69
2022/05/06 01:55:27;;;;;;;;;25.00;23.00;;;;;16.48;52.68;102112.88;5060900;28;45449;-69
2022/05/06 01:57:53;;;;;;;;;20.75;19.25;;;;;16.46;52.44;102106.66;5070677;28;45312;-69
2022/05/06 02:00:19;;;;;;;;;24.25;24.25;;;;;16.47;52.52;102113.78;5060633;28;45327;-69
2022/05/06 02:02:44;;;;;;;;;25.75;23.50;;;;;16.41;52.52;102116.72;5060507;28;46107;-69
2022/05/06 02:05:19;;;;;;;;;30.50;25.75;;;;;16.41;52.96;102119.44;5066122;27;45376;-69
2022/05/06 02:07:52;;;;;;;;;23.00;22.50;;;;;16.38;52.66;102120.41;5060935;28;45239;-69
2022/05/06 02:10:20;;;;;;;;;28.00;25.50;;;;;16.39;52.67;102122.16;5060493;28;46231;-69
2022/05/06 02:12:46;;;;;;;;;25.75;22.50;;;;;16.37;52.88;102123.16;5073718;28;45255;-69
2022/05/06 02:15:12;;;;;;;;;24.50;23.75;;;;;16.36;52.85;102119.56;5060632;28;45299;-69
2022/05/06 02:17:39;;;;;;;;;23.50;22.00;;;;;16.32;52.95;102115.22;5060605;28;45328;-69
2022/05/06 02:20:06;;;;;;;;;23.00;19.50;;;;;16.29;52.85;102121.59;5071990;28;45315;-69
2022/05/06 02:22:32;;;;;;;;;25.00;22.25;;;;;16.26;53.04;102121.69;5061678;28;45609;-69
2022/05/06 02:24:58;;;;;;;;;23.50;22.75;;;;;16.25;52.98;102117.25;5071679;28;45315;-69
2022/05/06 02:27:23;;;;;;;;;28.25;25.25;;;;;16.30;53.21;102122.47;5068675;28;45294;-69
2022/05/06 02:35:16;;;;;;;;;26.75;23.25;;;;;16.28;53.12;102111.75;5060578;28;45439;-69
2022/05/06 02:37:42;;;;;;;;;23.00;19.75;;;;;16.30;53.13;102120.69;5059605;28;45403;-69
2022/05/06 02:40:09;;;;;;;;;23.25;20.50;;;;;16.32;53.08;102115.22;5070838;28;46222;-69
2022/05/06 02:42:35;;;;;;;;;21.75;20.75;;;;;16.30;52.99;102111.69;5060180;28;45401;-69
2022/05/06 02:45:00;;;;;;;;;23.00;23.00;;;;;16.29;53.26;102124.31;5059985;28;45335;-69
2022/05/06 02:47:25;;;;;;;;;20.75;20.50;;;;;16.26;53.13;102118.13;5060004;28;45159;-69
2022/05/06 02:49:52;;;;;;;;;20.75;20.75;;;;;16.20;53.22;102119.22;5063797;28;46180;-69
2022/05/06 02:52:18;;;;;;;;;25.00;23.25;;;;;16.21;53.41;102117.41;5059497;28;45505;-69
2022/05/06 02:54:45;;;;;;;;;21.50;21.50;;;;;16.25;52.90;102119.06;5059772;28;45485;-69
2022/05/06 02:57:10;;;;;;;;;23.00;21.00;;;;;16.26;53.17;102110.06;5059759;28;45368;-69
2022/05/06 02:59:36;;;;;;;;;19.75;19.25;;;;;16.27;53.31;102114.50;5061615;28;46269;-69
2022/05/06 03:02:01;;;;;;;;;25.50;22.25;;;;;16.26;53.22;102118.13;5067057;28;45477;-69
2022/05/06 03:04:26;;;;;;;;;22.75;20.00;;;;;16.22;53.07;102117.38;5061660;27;45445;-69
2022/05/06 03:06:52;;;;;;;;;20.00;18.75;;;;;16.20;53.16;102116.50;5072776;28;45524;-69
2022/05/06 03:09:17;;;;;;;;;23.25;21.00;;;;;16.26;53.12;102126.22;5072301;28;46115;-69
2022/05/06 03:11:43;;;;;;;;;20.50;20.50;;;;;16.20;53.16;102127.28;5073664;28;45330;-68
2022/05/06 03:14:08;;;;;;;;;23.75;23.25;;;;;16.22;53.17;102125.44;5059656;28;45228;-69
2022/05/06 03:16:33;;;;;;;;;24.00;21.50;;;;;16.21;53.21;102128.19;5059506;28;45178;-69
2022/05/06 03:19:00;;;;;;;;;20.75;20.75;;;;;16.20;53.06;102123.72;5063563;28;46551;-69
2022/05/06 03:21:26;;;;;;;;;19.25;18.00;;;;;16.19;53.36;102124.66;5059557;28;45294;-69
2022/05/06 03:23:52;;;;;;;;;20.50;18.50;;;;;16.18;53.20;102125.59;5065687;28;45512;-69
2022/05/06 03:26:17;;;;;;;;;22.75;20.75;;;;;16.17;53.19;102121.13;5072775;28;45486;-69
2022/05/06 03:28:43;;;;;;;;;23.75;22.25;;;;;16.14;53.26;102130.22;5063696;28;46290;-69
2022/05/06 03:31:11;;;;;;;;;23.50;22.25;;;;;16.14;53.36;102127.53;5079110;28;45236;-69
2022/05/06 03:33:37;;;;;;;;;23.00;23.00;;;;;16.14;53.38;102134.69;5076757;28;45418;-68
2022/05/06 03:36:03;;;;;;;;;21.75;21.75;;;;;16.11;53.37;102133.88;5065457;28;45315;-68
2022/05/06 03:38:28;;;;;;;;;21.25;19.25;;;;;16.10;53.41;102131.22;5072861;28;45434;-69
2022/05/06 03:40:55;;;;;;;;;19.75;19.00;;;;;16.09;53.71;102133.06;5064471;28;45528;-68
2022/05/06 03:43:20;;;;;;;;;26.75;22.50;;;;;16.08;53.40;102127.72;5076544;28;45359;-69
2022/05/06 03:45:46;;;;;;;;;22.75;22.75;;;;;15.98;53.28;102120.88;5061438;28;45469;-69
2022/05/06 03:48:11;;;;;;;;;24.25;22.25;;;;;16.04;53.53;102131.47;5066884;28;45417;-69
2022/05/06 03:53:23;;;;;;;;;27.75;24.50;;;;;15.99;53.54;102130.69;5062615;28;45211;-69
2022/05/06 03:55:48;;;;;;;;;21.50;20.50;;;;;15.99;53.53;102133.41;5062530;28;45541;-69
2022/05/06 03:58:14;;;;;;;;;24.25;23.00;;;;;15.97;53.63;102133.47;5065584;28;46325;-69
2022/05/06 04:00:40;;;;;;;;;20.25;18.25;;;;;15.87;53.71;102124.81;5072877;28;45469;-69
2022/05/06 04:03:05;;;;;;;;;29.25;25.50;;;;;15.95;53.76;102145.22;5073137;27;45308;-69
2022/05/06 04:05:32;;;;;;;;;25.75;23.75;;;;;15.93;53.78;102150.66;5076105;28;45480;-69
2022/05/06 04:07:59;;;;;;;;;23.50;23.50;;;;;15.89;53.73;102144.47;5079158;28;46412;-69
2022/05/06 04:10:24;;;;;;;;;20.50;20.50;;;;;15.87;53.71;102143.66;5071362;28;45277;-69
2022/05/06 04:12:51;;;;;;;;;28.75;25.50;;;;;15.86;53.77;102151.78;5066205;28;45955;-68
2022/05/06 04:15:17;;;;;;;;;26.75;21.25;;;;;15.82;53.90;102147.41;5082212;28;45289;-68
2022/05/06 04:17:42;;;;;;;;;24.00;20.75;;;;;15.82;53.81;102147.41;5078191;28;45393;-69
2022/05/06 04:25:35;;;;;;;;;27.75;23.00;;;;;15.72;53.96;102145.00;5068015;28;45221;-68
2022/05/06 04:28:02;;;;;;;;;24.75;22.25;;;;;15.71;54.38;102143.22;5065831;28;45544;-69
2022/05/06 04:30:27;;;;;;;;;27.50;24.50;;;;;15.74;54.15;102155.72;5072188;28;46981;-69
2022/05/06 04:32:53;;;;;;;;;24.00;20.25;;;;;15.67;54.25;102152.34;5074838;28;45247;-69
2022/05/06 04:35:19;;;;;;;;;25.75;25.75;;;;;15.72;54.05;102157.59;5062267;28;45517;-68
2022/05/06 04:37:44;;;;;;;;;27.00;23.75;;;;;15.68;54.31;102155.91;5073820;28;47303;-69
2022/05/06 04:40:10;;;;;;;;;26.00;25.00;;;;;15.69;54.00;102161.22;5076145;28;45467;-69
2022/05/06 04:42:36;;;;;;;;;28.75;25.75;;;;;15.72;54.10;102168.34;5071279;28;45527;-69
2022/05/06 04:45:01;;;;;;;;;26.50;25.75;;;;;15.69;54.35;102166.63;5081682;28;45455;-69
2022/05/06 04:47:26;;;;;;;;;24.50;24.50;;;;;15.63;54.37;102157.84;5073808;28;45389;-69
2022/05/06 04:49:52;;;;;;;;;24.25;23.75;;;;;15.69;54.33;102166.63;5061606;28;45333;-69
2022/05/06 04:52:17;;;;;;;;;25.00;23.75;;;;;15.70;54.29;102179.16;5061485;28;45337;-70
2022/05/06 04:54:42;;;;;;;;;23.50;23.50;;;;;15.66;54.42;102169.41;5060556;28;45589;-69
2022/05/06 04:57:08;;;;;;;;;22.25;20.00;;;;;15.64;54.61;102171.28;5069699;28;45539;-69
2022/05/06 04:59:33;;;;;;;;;22.00;21.25;;;;;15.68;54.39;102177.44;5067645;28;45288;-69
2022/05/06 05:01:58;;;;;;;;;27.75;24.00;;;;;15.67;54.25;102176.56;5061730;28;45333;-69
2022/05/06 05:04:27;;;;;;;;;25.50;24.50;;;;;15.63;54.50;102179.38;5065814;28;45160;-69
2022/05/06 05:06:54;;;;;;;;;23.25;22.25;;;;;15.63;54.61;102184.78;5062538;28;47241;-69
2022/05/06 05:09:20;;;;;;;;;26.50;25.25;;;;;15.61;54.26;102178.56;5080648;28;45630;-69
2022/05/06 05:11:45;;;;;;;;;28.25;26.50;;;;;15.59;54.54;102185.81;5075630;28;45572;-69
2022/05/06 05:14:10;;;;;;;;;31.75;28.50;;;;;15.55;54.48;102172.44;5076861;28;45393;-69
2022/05/06 05:16:36;;;;;;;;;27.50;25.00;;;;;15.62;54.67;102183.00;5074517;28;45379;-69
2022/05/06 05:19:01;;;;;;;;;26.75;25.50;;;;;15.59;54.76;102180.44;5078064;28;45334;-69
2022/05/06 05:21:26;;;;;;;;;25.75;24.25;;;;;15.62;54.67;102177.63;5061072;28;45469;-69
2022/05/06 05:23:52;;;;;;;;;23.00;22.00;;;;;15.60;54.64;102176.78;5079737;28;45894;-69
2022/05/06 05:26:17;;;;;;;;;26.00;22.25;;;;;15.61;54.72;102183.94;5067226;28;45875;-69
2022/05/06 05:28:42;;;;;;;;;26.50;25.50;;;;;15.60;54.71;102179.47;5065239;28;45502;-69
2022/05/06 05:31:08;;;;;;;;;24.00;22.00;;;;;15.56;54.91;102182.25;5065325;27;45349;-69
2022/05/06 05:33:33;;;;;;;;;31.00;29.25;;;;;15.56;54.95;102184.94;5062555;28;45333;-69
2022/05/06 05:35:58;;;;;;;;;27.75;26.00;;;;;15.54;54.80;102186.81;5072569;28;45374;-69
2022/05/06 05:38:24;;;;;;;;;29.25;26.00;;;;;15.55;55.01;102188.59;5066685;28;45373;-69
2022/05/06 05:40:49;;;;;;;;;26.25;24.25;;;;;15.51;54.91;102189.59;5073532;28;46086;-69
2022/05/06 05:48:42;;;;;;;;;24.00;21.50;;;;;15.52;54.97;102196.75;5067144;28;45475;-68
2022/05/06 05:51:08;;;;;;;;;25.75;23.50;;;;;15.57;55.08;102208.25;5071291;28;45378;-68
2022/05/06 05:53:34;;;;;;;;;26.50;25.75;;;;;15.58;55.13;102209.13;5063245;28;45499;-68
2022/05/06 05:55:59;;;;;;;;;25.75;25.75;;;;;15.54;55.11;102194.00;5070876;28;45409;-68
2022/05/06 05:58:25;;;;;;;;;31.00;29.25;;;;;15.57;55.01;102196.63;5073944;28;45271;-68
2022/05/06 06:00:51;;;;;;;;;23.50;23.50;;;;;15.56;55.11;102201.09;5060488;28;45487;-67
2022/05/06 06:03:16;;;;;;;;;29.75;28.25;;;;;15.56;55.00;102193.03;5067299;28;45456;-67
2022/05/06 06:05:42;;;;;;;;;30.50;27.50;;;;;15.51;55.16;102194.97;5079686;28;45338;-68
2022/05/06 06:08:07;;;;;;;;;32.25;29.00;;;;;15.53;55.31;102195.81;5065802;28;45188;-67
2022/05/06 06:10:33;;;;;;;;;28.50;26.00;;;;;15.57;55.26;102194.78;5069946;28;47267;-68
2022/05/06 06:13:01;;;;;;;;;28.50;23.75;;;;;15.59;55.19;102196.56;5073421;28;45420;-68
2022/05/06 06:15:26;;;;;;;;;26.25;24.00;;;;;15.57;55.02;102181.34;5063984;28;46096;-68
2022/05/06 06:17:52;;;;;;;;;28.50;24.50;;;;;15.62;55.07;102188.38;5073795;28;45464;-67
2022/05/06 06:20:17;;;;;;;;;30.50;28.00;;;;;15.53;55.24;102170.72;5060778;28;45403;-67
2022/05/06 06:22:43;;;;;;;;;31.75;28.00;;;;;15.60;55.23;102180.34;5060593;28;45355;-68
2022/05/06 06:25:08;;;;;;;;;35.00;32.75;;;;;15.63;55.45;102195.53;5063211;28;46133;-68
2022/05/06 06:27:34;;;;;;;;;29.50;28.00;;;;;15.61;55.23;102200.09;5079757;28;45429;-67
2022/05/06 06:29:59;;;;;;;;;32.00;28.50;;;;;15.60;55.17;102195.63;5068809;28;45437;-67
2022/05/06 06:32:25;;;;;;;;;31.00;29.75;;;;;15.60;55.31;102191.13;5066791;28;45559;-68
2022/05/06 06:34:52;;;;;;;;;26.50;24.75;;;;;15.61;55.45;102192.03;5065889;28;45227;-67
2022/05/06 06:37:19;;;;;;;;;30.50;29.00;;;;;15.68;55.40;102201.66;5072640;28;45254;-68
2022/05/06 06:39:45;;;;;;;;;33.75;31.75;;;;;15.67;55.40;102200.78;5076670;28;45374;-68
2022/05/06 06:42:10;;;;;;;;;33.00;30.00;;;;;15.69;55.49;102209.69;5067950;28;45385;-68
2022/05/06 06:44:36;;;;;;;;;34.50;31.75;;;;;15.70;55.54;102206.09;5079883;28;47040;-68
2022/05/06 06:47:07;;;;;;;;;33.00;30.25;;;;;15.67;55.23;102202.56;5075409;28;45440;-68
2022/05/06 06:49:33;;;;;;;;;30.50;28.25;;;;;15.63;55.67;102207.19;5060001;28;45435;-68
2022/05/06 06:51:58;;;;;;;;;32.00;29.75;;;;;15.61;55.65;102198.28;5064299;28;45474;-68
2022/05/06 06:54:23;;;;;;;;;33.50;31.25;;;;;15.67;55.65;102197.19;5062527;28;45252;-68
2022/05/06 06:56:49;;;;;;;;;27.75;27.75;;;;;15.69;55.53;102198.06;5062240;28;45259;-68
2022/05/06 06:59:14;;;;;;;;;30.75;29.00;;;;;15.74;55.51;102205.03;5068452;28;45302;-68
2022/05/06 07:01:39;;;;;;;;;25.50;24.75;;;;;15.76;55.70;102202.34;5070149;28;45256;-68
2022/05/06 07:04:04;;;;;;;;;35.00;30.00;;;;;15.80;55.54;102195.91;5060002;28;45695;-67
2022/05/06 07:11:58;;;;;;;;;30.75;28.75;;;;;15.87;55.61;102202.91;5064180;28;45467;-67
2022/05/06 07:14:25;;;;;;;;;32.25;30.25;;;;;15.90;55.51;102207.28;5057748;28;46858;-67
2022/05/06 07:16:52;;;;;;;;;37.00;32.00;;;;;15.90;55.69;102205.50;5072490;27;45698;-67
2022/05/06 07:19:17;;;;;;;;;27.25;24.75;;;;;15.93;55.41;102205.38;5079125;28;45384;-67
2022/05/06 07:21:44;;;;;;;;;32.50;29.00;;;;;15.95;55.53;102208.03;5066731;27;45536;-67
2022/05/06 07:24:09;;;;;;;;;35.75;30.00;;;;;15.98;55.69;102213.31;5067737;28;45334;-67
2022/05/06 07:26:35;;;;;;;;;28.25;26.00;;;;;15.99;55.52;102209.72;5061622;28;45366;-67
2022/05/06 07:29:00;;;;;;;;;24.00;23.00;;;;;16.01;55.26;102207.84;5068713;28;45409;-67
2022/05/06 07:31:25;;;;;;;;;34.25;29.50;;;;;16.07;55.36;102209.44;5081438;28;45451;-67
2022/05/06 07:33:51;;;;;;;;;28.50;27.00;;;;;16.08;55.71;102204.00;5066019;28;45334;-67
2022/05/06 07:36:16;;;;;;;;;27.25;25.25;;;;;16.15;55.20;102214.59;5062450;28;45207;-68
2022/05/06 07:38:41;;;;;;;;;27.75;27.75;;;;;16.08;55.32;102205.81;5081466;28;45368;-67
2022/05/06 07:41:07;;;;;;;;;27.25;24.25;;;;;16.18;55.46;102219.88;5078210;28;45500;-67
2022/05/06 07:43:33;;;;;;;;;27.50;25.25;;;;;16.22;55.60;102221.53;5061328;28;46070;-67
2022/05/06 07:46:01;;;;;;;;;26.00;25.00;;;;;16.27;55.71;102225.88;5062309;28;45398;-68
2022/05/06 07:48:27;;;;;;;;;27.00;25.75;;;;;16.35;55.48;102222.03;5065429;28;45454;-67
2022/05/06 07:50:52;;;;;;;;;30.00;26.75;;;;;16.40;55.45;102223.63;5066223;28;45450;-68
2022/05/06 07:53:19;;;;;;;;;26.50;24.00;;;;;16.34;55.11;102207.69;5068644;28;45613;-71
2022/05/06 07:55:45;;;;;;;;;28.50;25.25;;;;;16.52;55.46;102224.16;5061384;28;45682;-69
2022/05/06 07:58:10;;;;;;;;;23.50;22.00;;;;;16.58;55.17;102214.03;5061332;28;45145;-69
2022/05/06 08:00:36;;;;;;;;;24.25;23.25;;;;;16.62;55.17;102215.72;5063509;28;45460;-69
2022/05/06 08:05:47;;;;;;;;;24.25;23.25;;;;;16.76;54.19;102208.97;5061593;28;45762;-69
2022/05/06 08:08:13;;;;;;;;;23.00;22.50;;;;;16.77;54.31;102213.41;5067028;28;45386;-69
2022/05/06 08:10:39;;;;;;;;;23.75;20.00;;;;;16.81;54.29;102207.00;5073323;28;45519;-69
2022/05/06 08:13:05;;;;;;;;;23.50;22.25;;;;;16.88;54.17;102205.84;5077505;28;46262;-69
2022/05/06 08:15:30;;;;;;;;;25.00;24.00;;;;;16.93;54.45;102214.66;5068144;28;45441;-70
2022/05/06 08:17:56;;;;;;;;;24.75;22.75;;;;;16.96;54.27;102211.00;5080992;27;45433;-77
2022/05/06 08:20:21;;;;;;;;;20.00;16.25;;;;;17.01;54.48;102209.00;5081018;28;45445;-82
2022/05/06 08:22:46;;;;;;;;;19.75;17.50;;;;;17.06;54.27;102209.72;5070193;28;45386;-72
2022/05/06 08:25:12;;;;;;;;;22.00;21.25;;;;;17.09;53.76;102200.63;5061273;28;45410;-78
2022/05/06 08:27:42;;;;;;;;;22.00;21.00;;;;;17.16;54.20;102203.03;5061287;28;45346;-75
2022/05/06 08:30:09;;;;;;;;;26.75;24.50;;;;;17.21;53.82;102202.88;5068513;28;45256;-74
2022/05/06 08:32:35;;;;;;;;;23.50;22.25;;;;;17.22;53.59;102208.22;5073741;28;45730;-74
2022/05/06 08:35:01;;;;;;;;;25.50;22.75;;;;;17.25;54.46;102207.22;5081220;28;45510;-74
2022/05/06 08:37:26;;;;;;;;;22.75;22.25;;;;;17.28;54.01;102199.00;5081001;28;45442;-75
2022/05/06 08:39:52;;;;;;;;;24.25;21.50;;;;;17.29;54.01;102202.56;5080926;28;45649;-74
2022/05/06 08:42:22;;;;;;;;;17.25;15.50;;;;;17.32;53.82;102203.34;5067413;28;45575;-72
2022/05/06 08:53:05;;;;;;;;;22.25;18.25;;;;;17.51;53.57;102206.25;5080963;28;45346;-74
2022/05/06 08:55:31;;;;;;;;;20.25;17.50;;;;;17.56;52.97;102214.16;5077515;28;45591;-74
2022/05/06 08:57:57;;;;;;;;;22.25;21.25;;;;;17.55;53.48;102202.47;5070933;28;45448;-74
2022/05/06 09:00:28;;;;;;;;;17.50;16.75;;;;;17.59;53.19;102209.53;5074281;28;45844;-74
2022/05/06 09:02:53;;;;;;;;;16.75;16.75;;;;;17.63;53.29;102210.28;5068017;28;46197;-74
2022/05/06 09:05:20;;;;;;;;;19.25;16.75;;;;;17.68;52.69;102202.88;5072965;28;45567;-73
2022/05/06 09:07:59;;;;;;;;;16.25;14.50;;;;;17.73;52.72;102205.41;5067451;28;45395;-73
2022/05/06 09:10:26;;;;;;;;;8.25;7.00;;;;;17.72;52.53;102196.41;5059475;28;45469;-74
2022/05/06 09:12:57;;;;;;;;;15.75;14.50;;;;;17.77;52.00;102205.25;5064515;28;45382;-74
2022/05/06 09:18:08;;;;;;;;;14.00;14.00;;;;;17.75;52.12;102190.88;5077091;28;45450;-70
2022/05/06 09:20:34;;;;;;;;;16.75;14.50;;;;;17.81;52.45;102191.59;5074887;28;45441;-70
2022/05/06 09:23:17;;;;;;;;;14.00;14.00;;;;;17.86;52.51;102187.78;5062698;28;46096;-70
2022/05/06 09:25:45;;;;;;;;;16.50;15.50;;;;;17.89;51.93;102184.09;5061070;28;45670;-70
2022/05/06 09:28:26;;;;;;;;;16.00;13.75;;;;;17.90;51.81;102184.03;5067034;27;45413;-70
2022/05/06 09:31:24;;;;;;;;;14.50;13.75;;;;;17.96;51.90;102180.22;5078065;28;45444;-69
2022/05/06 09:33:50;;;;;;;;;16.50;16.25;;;;;17.99;52.46;102188.19;5070739;28;45504;-70
2022/05/06 09:36:22;;;;;;;;;12.00;12.00;;;;;18.03;51.48;102189.81;5059680;28;45490;-70
2022/05/06 09:39:04;;;;;;;;;7.50;7.50;;;;;18.06;51.57;102188.81;5060951;28;45450;-70
2022/05/06 09:41:30;;;;;;;;;13.00;12.00;;;;;18.11;51.22;102192.22;5074636;28;45505;-70
2022/05/06 09:44:00;;;;;;;;;10.00;9.75;;;;;18.15;51.47;102185.75;5080016;28;45504;-70
2022/05/06 09:46:26;;;;;;;;;13.00;11.00;;;;;18.15;51.80;102185.75;5068427;28;45453;-70
2022/05/06 09:48:58;;;;;;;;;17.75;13.75;;;;;18.23;51.54;102188.13;5062795;28;45881;-70
2022/05/06 09:51:28;;;;;;;;;12.00;11.25;;;;;18.26;51.08;102179.88;5066677;27;45451;-70
2022/05/06 09:53:55;;;;;;;;;9.50;9.50;;;;;18.30;50.88;102170.72;5073368;28;46019;-70
2022/05/06 09:56:21;;;;;;;;;10.75;8.75;;;;;18.32;50.55;102180.50;5076908;27;45953;-69
2022/05/06 09:58:46;;;;;;;;;7.00;7.00;;;;;18.35;50.69;102165.13;5060036;28;45398;-70
2022/05/06 10:01:15;;;;;;;;;10.00;10.00;;;;;18.32;50.87;102158.00;5059188;28;45425;-70
2022/05/06 10:03:41;;;;;;;;;12.00;11.00;;;;;18.38;50.70;102157.75;5060674;28;45485;-69
2022/05/06 10:06:09;;;;;;;;;9.50;9.50;;;;;18.48;50.31;102166.34;5063906;28;45525;-70
2022/05/06 10:08:38;;;;;;;;;12.75;12.75;;;;;18.54;50.83;102167.91;5069425;28;45292;-70
2022/05/06 10:11:12;;;;;;;;;12.50;11.25;;;;;18.58;50.58;102156.88;5071238;28;45499;-70
2022/05/06 10:13:43;;;;;;;;;13.25;11.75;;;;;18.63;50.08;102162.97;5073846;28;48162;-70
2022/05/06 10:16:09;;;;;;;;;20.50;14.50;;;;;18.66;49.70;102170.06;5059667;28;45476;-70
2022/05/06 10:18:42;;;;;;;;;13.25;12.00;;;;;18.67;49.48;102163.72;5065330;28;45527;-70
2022/05/06 10:21:09;;;;;;;;;11.00;11.00;;;;;18.70;49.32;102171.69;5059410;28;45399;-70
2022/05/06 10:23:48;;;;;;;;;14.00;11.75;;;;;18.72;49.45;102158.97;5059700;28;46216;-70
2022/05/06 10:26:36;;;;;;;;;13.00;9.50;;;;;18.81;49.38;102158.59;5063687;28;45689;-70
2022/05/06 10:34:32;;;;;;;;;13.00;13.00;;;;;18.94;48.92;102158.06;5059844;28;45745;-70
2022/05/06 10:37:02;;;;;;;;;13.75;12.75;;;;;18.98;49.02;102159.69;5069218;28;45295;-70
2022/05/06 10:39:35;;;;;;;;;13.75;13.50;;;;;18.99;48.58;102158.72;5066899;28;45426;-70
2022/05/06 10:42:08;;;;;;;;;12.50;11.25;;;;;18.98;48.11;102157.84;5076170;28;45587;-70
2022/05/06 10:44:44;;;;;;;;;15.25;15.25;;;;;18.97;48.09;102149.81;5059947;28;46329;-70
2022/05/06 10:47:09;;;;;;;;;11.50;11.00;;;;;19.03;47.43;102154.94;5059653;28;45833;-69
2022/05/06 10:49:34;;;;;;;;;15.33;14.33;;;;;19.07;47.51;102146.59;5059877;28;45492;-69
2022/05/06 10:52:28;;;;;;;;;15.00;15.00;;;;;19.14;47.98;102141.78;5058177;28;45365;-70
2022/05/06 10:55:01;;;;;;;;;12.25;11.50;;;;;19.13;47.71;102125.59;5060653;28;46527;-71
2022/05/06 10:57:28;;;;;;;;;14.50;12.50;;;;;19.23;47.08;102140.50;5066614;28;45423;-72
2022/05/06 11:00:02;;;;;;;;;13.50;13.50;;;;;19.26;47.07;102132.19;5073469;28;45516;-71
2022/05/06 11:02:32;;;;;;;;;13.50;10.00;;;;;19.25;46.96;102125.06;5060467;28;45316;-71
2022/05/06 11:05:09;;;;;;;;;10.50;9.75;;;;;19.32;46.82;102133.75;5058523;28;45584;-69
2022/05/06 11:07:37;;;;;;;;;14.25;12.00;;;;;19.30;46.48;102128.41;5069071;28;45511;-70
2022/05/06 11:10:23;;;;;;;;;13.00;12.00;;;;;19.37;46.75;102127.16;5070009;28;46058;-69
2022/05/06 11:12:51;;;;;;;;;12.25;11.25;;;;;19.42;46.35;102127.81;5061284;28;45333;-72
2022/05/06 11:15:21;;;;;;;;;10.75;9.00;;;;;19.43;46.34;102117.91;5062568;28;46213;-78
2022/05/06 11:17:48;;;;;;;;;11.00;11.00;;;;;19.52;46.23;102133.69;5067989;28;45507;-77
2022/05/06 11:20:14;;;;;;;;;12.75;11.75;;;;;19.55;46.25;102122.72;5069909;28;45247;-77
2022/05/06 11:23:02;;;;;;;;;12.75;11.75;;;;;19.59;46.20;102121.59;5058957;28;45337;-76
2022/05/06 11:25:33;;;;;;;;;9.75;9.75;;;;;19.62;45.89;102120.59;5059177;28;47271;-77
2022/05/06 11:28:01;;;;;;;;;11.50;10.50;;;;;19.67;45.81;102113.09;5065610;28;45515;-76
2022/05/06 11:30:29;;;;;;;;;9.25;8.75;;;;;19.72;46.25;102115.59;5072918;28;45456;-77
2022/05/06 11:33:03;;;;;;;;;8.00;7.00;;;;;19.75;46.02;102108.22;5067809;28;45624;-76
2022/05/06 11:35:33;;;;;;;;;10.75;8.50;;;;;19.81;45.45;102112.44;5058829;28;45427;-77
2022/05/06 11:38:00;;;;;;;;;12.25;11.25;;;;;19.83;45.58;102101.53;5058959;28;46300;-73
2022/05/06 11:40:33;;;;;;;;;14.75;13.00;;;;;19.89;45.34;102096.69;5068818;28;45400;-68
2022/05/06 11:42:59;;;;;;;;;10.75;10.00;;;;;19.85;44.94;102095.09;5069096;28;45330;-72
2022/05/06 11:48:14;;;;;;;;;11.50;10.75;;;;;19.98;44.93;102109.78;5058857;28;45459;-71
2022/05/06 11:50:41;;;;;;;;;11.25;8.50;;;;;19.99;44.48;102095.25;5058213;28;45327;-72
2022/05/06 11:53:09;;;;;;;;;11.25;11.25;;;;;19.98;44.82;102101.66;5077693;28;45295;-72
2022/05/06 11:55:40;;;;;;;;;7.50;7.50;;;;;19.98;44.50;102096.25;5060431;28;45430;-78
2022/05/06 11:58:07;;;;;;;;;8.75;7.25;;;;;20.02;44.23;102094.25;5059741;28;45820;-78